sensor_id;sensor_type;location;lat;lon;timestamp;P1;durP1;ratioP1;P2;durP2;ratioP2
72194;SDS011;60095;50.180;9.032;2023-05-10T00:01:08;3.95;;;2.65;;
72194;SDS011;60095;50.180;9.032;2023-05-10T00:03:35;4.38;;;3.13;;
72194;SDS011;60095;50.180;9.032;2023-05-10T00:06:01;7.22;;;2.83;;
72194;SDS011;60095;50.180;9.032;2023-05-10T00:08:28;1.83;;;1.70;;
72194;SDS011;60095;50.180;9.032;2023-05-10T00:10:54;2.33;;;1.83;;
72194;SDS011;60095;50.180;9.032;2023-05-10T00:13:21;1.98;;;1.60;;
72194;SDS011;60095;50.180;9.032;2023-05-10T00:15:48;9.00;;;1.85;;
72194;SDS011;60095;50.180;9.032;2023-05-10T00:18:17;4.40;;;1.15;;
72194;SDS011;60095;50.180;9.032;2023-05-10T00:20:43;2.92;;;1.10;;
72194;SDS011;60095;50.180;9.032;2023-05-10T00:23:12;0.28;;;0.20;;
72194;SDS011;60095;50.180;9.032;2023-05-10T00:25:38;2.08;;;0.60;;
72194;SDS011;60095;50.180;9.032;2023-05-10T00:28:05;2.85;;;0.60;;
72194;SDS011;60095;50.180;9.032;2023-05-10T00:30:31;0.73;;;0.25;;
72194;SDS011;60095;50.180;9.032;2023-05-10T00:32:58;3.45;;;0.38;;
72194;SDS011;60095;50.180;9.032;2023-05-10T00:35:26;1.17;;;0.85;;
72194;SDS011;60095;50.180;9.032;2023-05-10T00:37:52;1.75;;;0.85;;
72194;SDS011;60095;50.180;9.032;2023-05-10T00:40:18;0.85;;;0.22;;
72194;SDS011;60095;50.180;9.032;2023-05-10T00:42:45;0.17;;;0.10;;
72194;SDS011;60095;50.180;9.032;2023-05-10T00:45:12;0.55;;;0.40;;
72194;SDS011;60095;50.180;9.032;2023-05-10T00:47:39;0.43;;;0.20;;
72194;SDS011;60095;50.180;9.032;2023-05-10T00:50:06;0.32;;;0.10;;
72194;SDS011;60095;50.180;9.032;2023-05-10T00:52:35;0.20;;;0.20;;
72194;SDS011;60095;50.180;9.032;2023-05-10T00:55:01;0.10;;;0.10;;
72194;SDS011;60095;50.180;9.032;2023-05-10T00:57:28;1.10;;;0.30;;
72194;SDS011;60095;50.180;9.032;2023-05-10T00:59:55;0.30;;;0.28;;
72194;SDS011;60095;50.180;9.032;2023-05-10T01:02:21;0.65;;;0.47;;
72194;SDS011;60095;50.180;9.032;2023-05-10T01:04:48;1.02;;;0.70;;
72194;SDS011;60095;50.180;9.032;2023-05-10T01:07:15;1.67;;;0.70;;
72194;SDS011;60095;50.180;9.032;2023-05-10T01:09:43;1.35;;;0.80;;
72194;SDS011;60095;50.180;9.032;2023-05-10T01:12:10;0.98;;;0.75;;
72194;SDS011;60095;50.180;9.032;2023-05-10T01:14:36;0.90;;;0.65;;
72194;SDS011;60095;50.180;9.032;2023-05-10T01:17:03;2.15;;;1.10;;
72194;SDS011;60095;50.180;9.032;2023-05-10T01:19:31;0.50;;;0.30;;
72194;SDS011;60095;50.180;9.032;2023-05-10T01:22:02;2.15;;;1.02;;
72194;SDS011;60095;50.180;9.032;2023-05-10T01:24:47;0.50;;;0.30;;
72194;SDS011;60095;50.180;9.032;2023-05-10T01:30:16;0.17;;;0.17;;
72194;SDS011;60095;50.180;9.032;2023-05-10T01:32:54;0.77;;;0.60;;
72194;SDS011;60095;50.180;9.032;2023-05-10T01:35:26;0.93;;;0.73;;
72194;SDS011;60095;50.180;9.032;2023-05-10T01:37:58;0.13;;;0.13;;
72194;SDS011;60095;50.180;9.032;2023-05-10T01:40:26;0.95;;;0.50;;
72194;SDS011;60095;50.180;9.032;2023-05-10T01:42:54;11.02;;;0.60;;
72194;SDS011;60095;50.180;9.032;2023-05-10T01:45:27;0.20;;;0.13;;
72194;SDS011;60095;50.180;9.032;2023-05-10T01:48:00;1.33;;;0.60;;
72194;SDS011;60095;50.180;9.032;2023-05-10T01:50:29;2.20;;;0.32;;
72194;SDS011;60095;50.180;9.032;2023-05-10T01:52:57;0.45;;;0.45;;
72194;SDS011;60095;50.180;9.032;2023-05-10T01:55:25;4.47;;;0.80;;
72194;SDS011;60095;50.180;9.032;2023-05-10T01:57:52;0.52;;;0.30;;
72194;SDS011;60095;50.180;9.032;2023-05-10T02:00:21;2.33;;;0.10;;
72194;SDS011;60095;50.180;9.032;2023-05-10T02:02:49;1.27;;;0.77;;
72194;SDS011;60095;50.180;9.032;2023-05-10T02:05:17;0.20;;;0.13;;
72194;SDS011;60095;50.180;9.032;2023-05-10T02:07:44;0.70;;;0.30;;
72194;SDS011;60095;50.180;9.032;2023-05-10T02:10:11;0.20;;;0.10;;
72194;SDS011;60095;50.180;9.032;2023-05-10T02:12:39;0.50;;;0.50;;
72194;SDS011;60095;50.180;9.032;2023-05-10T02:15:07;0.25;;;0.15;;
72194;SDS011;60095;50.180;9.032;2023-05-10T02:17:34;0.20;;;0.10;;
72194;SDS011;60095;50.180;9.032;2023-05-10T02:20:01;0.40;;;0.10;;
72194;SDS011;60095;50.180;9.032;2023-05-10T02:22:31;0.47;;;0.43;;
72194;SDS011;60095;50.180;9.032;2023-05-10T02:24:58;0.85;;;0.50;;
72194;SDS011;60095;50.180;9.032;2023-05-10T02:27:25;2.20;;;0.30;;
72194;SDS011;60095;50.180;9.032;2023-05-10T02:29:53;0.85;;;0.57;;
72194;SDS011;60095;50.180;9.032;2023-05-10T02:32:20;0.20;;;0.10;;
72194;SDS011;60095;50.180;9.032;2023-05-10T02:34:47;0.65;;;0.35;;
72194;SDS011;60095;50.180;9.032;2023-05-10T02:37:17;0.60;;;0.22;;
72194;SDS011;60095;50.180;9.032;2023-05-10T02:39:46;1.40;;;0.70;;
72194;SDS011;60095;50.180;9.032;2023-05-10T02:42:14;0.43;;;0.32;;
72194;SDS011;60095;50.180;9.032;2023-05-10T02:44:42;0.65;;;0.50;;
72194;SDS011;60095;50.180;9.032;2023-05-10T02:47:09;0.03;;;0.00;;
72194;SDS011;60095;50.180;9.032;2023-05-10T02:49:35;1.08;;;0.20;;
72194;SDS011;60095;50.180;9.032;2023-05-10T02:52:03;1.35;;;0.60;;
72194;SDS011;60095;50.180;9.032;2023-05-10T02:54:33;0.82;;;0.20;;
72194;SDS011;60095;50.180;9.032;2023-05-10T02:57:02;0.80;;;0.52;;
72194;SDS011;60095;50.180;9.032;2023-05-10T02:59:30;0.17;;;0.10;;
72194;SDS011;60095;50.180;9.032;2023-05-10T03:01:57;0.47;;;0.43;;
72194;SDS011;60095;50.180;9.032;2023-05-10T03:04:24;1.25;;;0.57;;
72194;SDS011;60095;50.180;9.032;2023-05-10T03:06:51;0.20;;;0.20;;
72194;SDS011;60095;50.180;9.032;2023-05-10T03:09:18;0.73;;;0.57;;
72194;SDS011;60095;50.180;9.032;2023-05-10T03:11:47;0.25;;;0.20;;
72194;SDS011;60095;50.180;9.032;2023-05-10T03:14:24;0.43;;;0.20;;
72194;SDS011;60095;50.180;9.032;2023-05-10T03:16:55;0.40;;;0.20;;
72194;SDS011;60095;50.180;9.032;2023-05-10T03:19:24;0.82;;;0.60;;
72194;SDS011;60095;50.180;9.032;2023-05-10T03:21:52;0.45;;;0.38;;
72194;SDS011;60095;50.180;9.032;2023-05-10T03:24:20;0.93;;;0.20;;
72194;SDS011;60095;50.180;9.032;2023-05-10T03:26:47;1.30;;;0.20;;
72194;SDS011;60095;50.180;9.032;2023-05-10T03:29:14;0.20;;;0.15;;
72194;SDS011;60095;50.180;9.032;2023-05-10T03:31:43;0.50;;;0.50;;
72194;SDS011;60095;50.180;9.032;2023-05-10T03:34:10;0.73;;;0.65;;
72194;SDS011;60095;50.180;9.032;2023-05-10T03:36:36;0.40;;;0.30;;
72194;SDS011;60095;50.180;9.032;2023-05-10T03:39:03;0.20;;;0.20;;
72194;SDS011;60095;50.180;9.032;2023-05-10T03:41:30;0.50;;;0.43;;
72194;SDS011;60095;50.180;9.032;2023-05-10T03:43:56;1.27;;;0.63;;
72194;SDS011;60095;50.180;9.032;2023-05-10T03:46:22;1.00;;;0.50;;
72194;SDS011;60095;50.180;9.032;2023-05-10T03:48:51;9.77;;;1.13;;
72194;SDS011;60095;50.180;9.032;2023-05-10T03:51:17;3.03;;;1.27;;
72194;SDS011;60095;50.180;9.032;2023-05-10T03:53:44;0.47;;;0.30;;
72194;SDS011;60095;50.180;9.032;2023-05-10T03:56:10;0.47;;;0.40;;
72194;SDS011;60095;50.180;9.032;2023-05-10T03:58:36;0.98;;;0.70;;
72194;SDS011;60095;50.180;9.032;2023-05-10T04:01:03;0.45;;;0.40;;
72194;SDS011;60095;50.180;9.032;2023-05-10T04:03:30;0.73;;;0.32;;
72194;SDS011;60095;50.180;9.032;2023-05-10T04:06:01;4.78;;;0.85;;
72194;SDS011;60095;50.180;9.032;2023-05-10T04:08:28;1.60;;;0.50;;
72194;SDS011;60095;50.180;9.032;2023-05-10T04:10:54;1.50;;;0.40;;
72194;SDS011;60095;50.180;9.032;2023-05-10T04:13:21;0.68;;;0.30;;
72194;SDS011;60095;50.180;9.032;2023-05-10T04:15:47;0.65;;;0.50;;
72194;SDS011;60095;50.180;9.032;2023-05-10T04:18:14;0.38;;;0.20;;
72194;SDS011;60095;50.180;9.032;2023-05-10T04:20:42;0.55;;;0.40;;
72194;SDS011;60095;50.180;9.032;2023-05-10T04:23:09;1.13;;;0.57;;
72194;SDS011;60095;50.180;9.032;2023-05-10T04:25:36;0.82;;;0.60;;
72194;SDS011;60095;50.180;9.032;2023-05-10T04:28:03;0.47;;;0.38;;
72194;SDS011;60095;50.180;9.032;2023-05-10T04:30:30;0.60;;;0.47;;
72194;SDS011;60095;50.180;9.032;2023-05-10T04:32:56;0.40;;;0.30;;
72194;SDS011;60095;50.180;9.032;2023-05-10T04:35:23;0.60;;;0.40;;
72194;SDS011;60095;50.180;9.032;2023-05-10T04:37:49;1.58;;;0.65;;
72194;SDS011;60095;50.180;9.032;2023-05-10T04:40:17;0.95;;;0.50;;
72194;SDS011;60095;50.180;9.032;2023-05-10T04:42:44;1.80;;;1.05;;
72194;SDS011;60095;50.180;9.032;2023-05-10T04:45:11;1.33;;;0.80;;
72194;SDS011;60095;50.180;9.032;2023-05-10T04:47:39;1.08;;;0.95;;
72194;SDS011;60095;50.180;9.032;2023-05-10T04:50:06;0.95;;;0.60;;
72194;SDS011;60095;50.180;9.032;2023-05-10T04:52:33;3.33;;;0.70;;
72194;SDS011;60095;50.180;9.032;2023-05-10T04:55:00;1.63;;;0.90;;
72194;SDS011;60095;50.180;9.032;2023-05-10T04:57:28;3.42;;;0.85;;
72194;SDS011;60095;50.180;9.032;2023-05-10T04:59:55;2.17;;;0.75;;
72194;SDS011;60095;50.180;9.032;2023-05-10T05:02:23;1.55;;;1.17;;
72194;SDS011;60095;50.180;9.032;2023-05-10T05:04:49;5.50;;;1.20;;
72194;SDS011;60095;50.180;9.032;2023-05-10T05:07:16;1.20;;;0.77;;
72194;SDS011;60095;50.180;9.032;2023-05-10T05:09:42;2.60;;;1.65;;
72194;SDS011;60095;50.180;9.032;2023-05-10T05:12:09;1.83;;;1.33;;
72194;SDS011;60095;50.180;9.032;2023-05-10T05:14:40;2.90;;;1.70;;
72194;SDS011;60095;50.180;9.032;2023-05-10T05:17:07;4.20;;;2.42;;
72194;SDS011;60095;50.180;9.032;2023-05-10T05:19:34;2.38;;;1.70;;
72194;SDS011;60095;50.180;9.032;2023-05-10T05:22:00;2.28;;;1.67;;
72194;SDS011;60095;50.180;9.032;2023-05-10T05:24:27;1.55;;;1.17;;
72194;SDS011;60095;50.180;9.032;2023-05-10T05:26:54;7.10;;;1.33;;
72194;SDS011;60095;50.180;9.032;2023-05-10T05:29:20;1.65;;;1.08;;
72194;SDS011;60095;50.180;9.032;2023-05-10T05:31:48;0.75;;;0.75;;
72194;SDS011;60095;50.180;9.032;2023-05-10T05:34:15;0.63;;;0.45;;
72194;SDS011;60095;50.180;9.032;2023-05-10T05:36:41;1.15;;;1.05;;
72194;SDS011;60095;50.180;9.032;2023-05-10T05:39:08;1.08;;;0.88;;
72194;SDS011;60095;50.180;9.032;2023-05-10T05:41:34;1.20;;;0.93;;
72194;SDS011;60095;50.180;9.032;2023-05-10T05:44:01;0.98;;;0.60;;
72194;SDS011;60095;50.180;9.032;2023-05-10T05:46:28;1.02;;;0.82;;
72194;SDS011;60095;50.180;9.032;2023-05-10T05:48:55;0.88;;;0.60;;
72194;SDS011;60095;50.180;9.032;2023-05-10T05:51:22;2.35;;;1.45;;
72194;SDS011;60095;50.180;9.032;2023-05-10T05:53:48;1.15;;;1.00;;
72194;SDS011;60095;50.180;9.032;2023-05-10T05:56:15;4.78;;;1.42;;
72194;SDS011;60095;50.180;9.032;2023-05-10T05:58:42;1.45;;;1.10;;
72194;SDS011;60095;50.180;9.032;2023-05-10T06:01:09;2.85;;;1.92;;
72194;SDS011;60095;50.180;9.032;2023-05-10T06:03:36;3.80;;;2.03;;
72194;SDS011;60095;50.180;9.032;2023-05-10T06:06:04;5.35;;;2.15;;
72194;SDS011;60095;50.180;9.032;2023-05-10T06:08:30;1.75;;;1.08;;
72194;SDS011;60095;50.180;9.032;2023-05-10T06:10:58;2.35;;;2.13;;
72194;SDS011;60095;50.180;9.032;2023-05-10T06:13:25;2.58;;;1.80;;
72194;SDS011;60095;50.180;9.032;2023-05-10T06:15:56;3.22;;;1.70;;
72194;SDS011;60095;50.180;9.032;2023-05-10T06:18:23;1.48;;;1.15;;
72194;SDS011;60095;50.180;9.032;2023-05-10T06:20:50;2.85;;;1.92;;
72194;SDS011;60095;50.180;9.032;2023-05-10T06:23:18;2.03;;;1.45;;
72194;SDS011;60095;50.180;9.032;2023-05-10T06:25:44;4.55;;;1.90;;
72194;SDS011;60095;50.180;9.032;2023-05-10T06:28:11;2.20;;;2.00;;
72194;SDS011;60095;50.180;9.032;2023-05-10T06:30:37;2.60;;;1.63;;
72194;SDS011;60095;50.180;9.032;2023-05-10T06:33:04;3.35;;;2.15;;
72194;SDS011;60095;50.180;9.032;2023-05-10T06:35:31;1.42;;;1.10;;
72194;SDS011;60095;50.180;9.032;2023-05-10T06:37:58;6.43;;;1.25;;
72194;SDS011;60095;50.180;9.032;2023-05-10T06:40:26;3.08;;;2.10;;
72194;SDS011;60095;50.180;9.032;2023-05-10T06:42:53;2.28;;;2.08;;
72194;SDS011;60095;50.180;9.032;2023-05-10T06:45:19;1.83;;;1.17;;
72194;SDS011;60095;50.180;9.032;2023-05-10T06:47:46;3.28;;;2.08;;
72194;SDS011;60095;50.180;9.032;2023-05-10T06:50:13;11.77;;;2.28;;
72194;SDS011;60095;50.180;9.032;2023-05-10T06:52:40;2.28;;;1.85;;
72194;SDS011;60095;50.180;9.032;2023-05-10T06:55:06;4.68;;;2.00;;
72194;SDS011;60095;50.180;9.032;2023-05-10T06:57:35;1.98;;;1.77;;
72194;SDS011;60095;50.180;9.032;2023-05-10T07:00:01;3.15;;;1.60;;
72194;SDS011;60095;50.180;9.032;2023-05-10T07:02:30;1.85;;;1.63;;
72194;SDS011;60095;50.180;9.032;2023-05-10T07:04:56;2.05;;;1.60;;
72194;SDS011;60095;50.180;9.032;2023-05-10T07:07:23;3.35;;;1.70;;
72194;SDS011;60095;50.180;9.032;2023-05-10T07:09:49;2.83;;;1.48;;
72194;SDS011;60095;50.180;9.032;2023-05-10T07:12:16;2.33;;;1.60;;
72194;SDS011;60095;50.180;9.032;2023-05-10T07:14:44;2.88;;;1.67;;
72194;SDS011;60095;50.180;9.032;2023-05-10T07:17:10;3.22;;;1.92;;
72194;SDS011;60095;50.180;9.032;2023-05-10T07:19:37;2.25;;;2.05;;
72194;SDS011;60095;50.180;9.032;2023-05-10T07:22:03;2.50;;;1.63;;
72194;SDS011;60095;50.180;9.032;2023-05-10T07:24:30;5.65;;;1.90;;
72194;SDS011;60095;50.180;9.032;2023-05-10T07:26:58;8.40;;;2.67;;
72194;SDS011;60095;50.180;9.032;2023-05-10T07:29:24;1.95;;;1.17;;
72194;SDS011;60095;50.180;9.032;2023-05-10T07:31:52;5.38;;;2.13;;
72194;SDS011;60095;50.180;9.032;2023-05-10T07:34:19;5.45;;;1.83;;
72194;SDS011;60095;50.180;9.032;2023-05-10T07:36:46;2.05;;;1.83;;
72194;SDS011;60095;50.180;9.032;2023-05-10T07:39:13;1.52;;;0.88;;
72194;SDS011;60095;50.180;9.032;2023-05-10T07:41:39;2.72;;;1.88;;
72194;SDS011;60095;50.180;9.032;2023-05-10T07:44:06;1.85;;;1.73;;
72194;SDS011;60095;50.180;9.032;2023-05-10T07:46:33;2.03;;;1.65;;
72194;SDS011;60095;50.180;9.032;2023-05-10T07:49:01;6.00;;;2.42;;
72194;SDS011;60095;50.180;9.032;2023-05-10T07:51:27;1.63;;;1.17;;
72194;SDS011;60095;50.180;9.032;2023-05-10T07:53:54;2.88;;;1.75;;
72194;SDS011;60095;50.180;9.032;2023-05-10T07:56:21;4.53;;;2.70;;
72194;SDS011;60095;50.180;9.032;2023-05-10T07:58:48;4.50;;;2.20;;
72194;SDS011;60095;50.180;9.032;2023-05-10T08:01:14;1.83;;;1.67;;
72194;SDS011;60095;50.180;9.032;2023-05-10T08:03:41;2.88;;;2.53;;
72194;SDS011;60095;50.180;9.032;2023-05-10T08:06:09;3.35;;;2.10;;
72194;SDS011;60095;50.180;9.032;2023-05-10T08:08:36;3.58;;;1.77;;
72194;SDS011;60095;50.180;9.032;2023-05-10T08:11:03;3.22;;;1.67;;
72194;SDS011;60095;50.180;9.032;2023-05-10T08:13:29;4.60;;;3.00;;
72194;SDS011;60095;50.180;9.032;2023-05-10T08:15:56;3.13;;;2.20;;
72194;SDS011;60095;50.180;9.032;2023-05-10T08:18:22;3.15;;;1.48;;
72194;SDS011;60095;50.180;9.032;2023-05-10T08:20:49;7.53;;;1.85;;
72194;SDS011;60095;50.180;9.032;2023-05-10T08:23:17;4.38;;;2.08;;
72194;SDS011;60095;50.180;9.032;2023-05-10T08:25:44;2.28;;;1.88;;
72194;SDS011;60095;50.180;9.032;2023-05-10T08:28:10;3.40;;;2.00;;
72194;SDS011;60095;50.180;9.032;2023-05-10T08:30:37;6.00;;;1.90;;
72194;SDS011;60095;50.180;9.032;2023-05-10T08:33:03;3.08;;;1.63;;
72194;SDS011;60095;50.180;9.032;2023-05-10T08:35:30;2.38;;;2.08;;
72194;SDS011;60095;50.180;9.032;2023-05-10T08:37:58;2.63;;;1.75;;
72194;SDS011;60095;50.180;9.032;2023-05-10T08:40:26;6.80;;;2.00;;
72194;SDS011;60095;50.180;9.032;2023-05-10T08:42:54;2.25;;;1.48;;
72194;SDS011;60095;50.180;9.032;2023-05-10T08:45:21;2.88;;;1.10;;
72194;SDS011;60095;50.180;9.032;2023-05-10T08:47:49;2.67;;;1.27;;
72194;SDS011;60095;50.180;9.032;2023-05-10T08:50:16;1.80;;;1.67;;
72194;SDS011;60095;50.180;9.032;2023-05-10T08:52:43;2.03;;;1.83;;
72194;SDS011;60095;50.180;9.032;2023-05-10T08:55:12;7.63;;;1.55;;
72194;SDS011;60095;50.180;9.032;2023-05-10T08:57:40;1.65;;;1.20;;
72194;SDS011;60095;50.180;9.032;2023-05-10T09:00:07;3.13;;;1.42;;
72194;SDS011;60095;50.180;9.032;2023-05-10T09:02:34;1.77;;;1.27;;
72194;SDS011;60095;50.180;9.032;2023-05-10T09:05:01;1.27;;;0.80;;
72194;SDS011;60095;50.180;9.032;2023-05-10T09:07:29;3.28;;;1.52;;
72194;SDS011;60095;50.180;9.032;2023-05-10T09:09:56;2.83;;;1.70;;
72194;SDS011;60095;50.180;9.032;2023-05-10T09:12:23;2.35;;;1.70;;
72194;SDS011;60095;50.180;9.032;2023-05-10T09:14:51;2.17;;;1.10;;
72194;SDS011;60095;50.180;9.032;2023-05-10T09:17:18;2.38;;;1.55;;
72194;SDS011;60095;50.180;9.032;2023-05-10T09:19:45;9.05;;;2.88;;
72194;SDS011;60095;50.180;9.032;2023-05-10T09:22:11;1.45;;;1.17;;
72194;SDS011;60095;50.180;9.032;2023-05-10T09:24:38;1.77;;;1.10;;
72194;SDS011;60095;50.180;9.032;2023-05-10T09:27:10;2.20;;;1.45;;
72194;SDS011;60095;50.180;9.032;2023-05-10T09:29:39;5.93;;;1.65;;
72194;SDS011;60095;50.180;9.032;2023-05-10T09:32:08;2.00;;;1.38;;
72194;SDS011;60095;50.180;9.032;2023-05-10T09:34:34;1.63;;;1.25;;
72194;SDS011;60095;50.180;9.032;2023-05-10T09:37:04;2.85;;;1.67;;
72194;SDS011;60095;50.180;9.032;2023-05-10T09:39:33;1.15;;;1.05;;
72194;SDS011;60095;50.180;9.032;2023-05-10T09:42:01;1.52;;;1.42;;
72194;SDS011;60095;50.180;9.032;2023-05-10T09:44:29;2.75;;;1.67;;
72194;SDS011;60095;50.180;9.032;2023-05-10T09:46:56;2.30;;;1.58;;
72194;SDS011;60095;50.180;9.032;2023-05-10T09:49:24;0.38;;;0.28;;
72194;SDS011;60095;50.180;9.032;2023-05-10T09:52:01;2.08;;;1.00;;
72194;SDS011;60095;50.180;9.032;2023-05-10T09:54:28;4.43;;;1.45;;
72194;SDS011;60095;50.180;9.032;2023-05-10T09:56:55;1.15;;;0.82;;
72194;SDS011;60095;50.180;9.032;2023-05-10T09:59:22;2.67;;;1.55;;
72194;SDS011;60095;50.180;9.032;2023-05-10T10:01:51;3.10;;;2.13;;
72194;SDS011;60095;50.180;9.032;2023-05-10T10:04:17;0.80;;;0.50;;
72194;SDS011;60095;50.180;9.032;2023-05-10T10:06:45;4.45;;;1.27;;
72194;SDS011;60095;50.180;9.032;2023-05-10T10:09:12;4.90;;;0.98;;
72194;SDS011;60095;50.180;9.032;2023-05-10T10:11:40;2.05;;;0.85;;
72194;SDS011;60095;50.180;9.032;2023-05-10T10:14:06;1.35;;;0.98;;
72194;SDS011;60095;50.180;9.032;2023-05-10T10:16:33;1.67;;;1.38;;
72194;SDS011;60095;50.180;9.032;2023-05-10T10:18:59;5.55;;;1.48;;
72194;SDS011;60095;50.180;9.032;2023-05-10T10:21:26;7.18;;;1.00;;
72194;SDS011;60095;50.180;9.032;2023-05-10T10:23:55;1.27;;;0.88;;
72194;SDS011;60095;50.180;9.032;2023-05-10T10:26:21;0.85;;;0.70;;
72194;SDS011;60095;50.180;9.032;2023-05-10T10:28:50;0.77;;;0.63;;
72194;SDS011;60095;50.180;9.032;2023-05-10T10:31:21;1.98;;;1.30;;
72194;SDS011;60095;50.180;9.032;2023-05-10T10:34:00;1.90;;;0.85;;
72194;SDS011;60095;50.180;9.032;2023-05-10T10:36:27;1.10;;;0.57;;
72194;SDS011;60095;50.180;9.032;2023-05-10T10:38:55;2.33;;;1.50;;
72194;SDS011;60095;50.180;9.032;2023-05-10T10:41:28;1.58;;;0.50;;
72194;SDS011;60095;50.180;9.032;2023-05-10T10:46:46;0.60;;;0.60;;
72194;SDS011;60095;50.180;9.032;2023-05-10T10:49:24;0.80;;;0.40;;
72194;SDS011;60095;50.180;9.032;2023-05-10T10:54:37;1.75;;;1.20;;
72194;SDS011;60095;50.180;9.032;2023-05-10T10:57:10;4.30;;;1.55;;
72194;SDS011;60095;50.180;9.032;2023-05-10T10:59:40;2.95;;;1.10;;
72194;SDS011;60095;50.180;9.032;2023-05-10T11:02:07;1.83;;;1.63;;
72194;SDS011;60095;50.180;9.032;2023-05-10T11:04:41;4.70;;;0.98;;
72194;SDS011;60095;50.180;9.032;2023-05-10T11:07:17;10.60;;;2.03;;
72194;SDS011;60095;50.180;9.032;2023-05-10T11:09:45;3.38;;;2.13;;
72194;SDS011;60095;50.180;9.032;2023-05-10T11:12:12;1.42;;;1.25;;
72194;SDS011;60095;50.180;9.032;2023-05-10T11:14:38;1.13;;;0.30;;
72194;SDS011;60095;50.180;9.032;2023-05-10T11:20:02;1.05;;;0.70;;
72194;SDS011;60095;50.180;9.032;2023-05-10T11:22:29;0.73;;;0.30;;
72194;SDS011;60095;50.180;9.032;2023-05-10T11:25:16;0.63;;;0.55;;
72194;SDS011;60095;50.180;9.032;2023-05-10T11:27:43;6.28;;;0.82;;
72194;SDS011;60095;50.180;9.032;2023-05-10T11:30:10;1.30;;;0.90;;
72194;SDS011;60095;50.180;9.032;2023-05-10T11:32:37;0.98;;;0.40;;
72194;SDS011;60095;50.180;9.032;2023-05-10T11:35:06;0.77;;;0.63;;
72194;SDS011;60095;50.180;9.032;2023-05-10T11:37:33;0.80;;;0.50;;
72194;SDS011;60095;50.180;9.032;2023-05-10T11:39:59;0.40;;;0.22;;
72194;SDS011;60095;50.180;9.032;2023-05-10T11:42:28;0.28;;;0.20;;
72194;SDS011;60095;50.180;9.032;2023-05-10T11:44:55;0.00;;;0.00;;
72194;SDS011;60095;50.180;9.032;2023-05-10T11:47:21;0.30;;;0.20;;
72194;SDS011;60095;50.180;9.032;2023-05-10T11:49:48;0.43;;;0.30;;
72194;SDS011;60095;50.180;9.032;2023-05-10T11:52:15;0.40;;;0.30;;
72194;SDS011;60095;50.180;9.032;2023-05-10T11:54:44;0.35;;;0.20;;
72194;SDS011;60095;50.180;9.032;2023-05-10T11:57:11;0.40;;;0.10;;
72194;SDS011;60095;50.180;9.032;2023-05-10T11:59:39;0.10;;;0.10;;
72194;SDS011;60095;50.180;9.032;2023-05-10T12:02:06;1.00;;;0.50;;
72194;SDS011;60095;50.180;9.032;2023-05-10T12:04:32;0.70;;;0.47;;
72194;SDS011;60095;50.180;9.032;2023-05-10T12:06:59;0.98;;;0.45;;
72194;SDS011;60095;50.180;9.032;2023-05-10T12:09:26;1.75;;;0.60;;
72194;SDS011;60095;50.180;9.032;2023-05-10T12:11:55;0.75;;;0.55;;
72194;SDS011;60095;50.180;9.032;2023-05-10T12:14:22;0.20;;;0.17;;
72194;SDS011;60095;50.180;9.032;2023-05-10T12:16:50;0.28;;;0.13;;
72194;SDS011;60095;50.180;9.032;2023-05-10T12:19:18;1.80;;;0.32;;
72194;SDS011;60095;50.180;9.032;2023-05-10T12:21:44;2.42;;;0.20;;
72194;SDS011;60095;50.180;9.032;2023-05-10T12:24:11;0.40;;;0.28;;
72194;SDS011;60095;50.180;9.032;2023-05-10T12:26:37;0.45;;;0.40;;
72194;SDS011;60095;50.180;9.032;2023-05-10T12:29:13;0.52;;;0.52;;
72194;SDS011;60095;50.180;9.032;2023-05-10T12:31:51;2.75;;;0.60;;
72194;SDS011;60095;50.180;9.032;2023-05-10T12:34:30;5.80;;;0.73;;
72194;SDS011;60095;50.180;9.032;2023-05-10T12:36:58;0.80;;;0.60;;
72194;SDS011;60095;50.180;9.032;2023-05-10T12:39:24;0.45;;;0.22;;
72194;SDS011;60095;50.180;9.032;2023-05-10T12:41:51;2.50;;;0.75;;
72194;SDS011;60095;50.180;9.032;2023-05-10T12:44:18;1.02;;;0.63;;
72194;SDS011;60095;50.180;9.032;2023-05-10T12:46:44;1.33;;;0.98;;
72194;SDS011;60095;50.180;9.032;2023-05-10T12:49:12;9.57;;;1.27;;
72194;SDS011;60095;50.180;9.032;2023-05-10T12:51:39;1.38;;;0.88;;
72194;SDS011;60095;50.180;9.032;2023-05-10T12:54:06;0.75;;;0.50;;
72194;SDS011;60095;50.180;9.032;2023-05-10T12:56:32;5.65;;;0.68;;
72194;SDS011;60095;50.180;9.032;2023-05-10T12:58:59;0.85;;;0.43;;
72194;SDS011;60095;50.180;9.032;2023-05-10T13:01:25;1.30;;;0.45;;
72194;SDS011;60095;50.180;9.032;2023-05-10T13:03:52;2.47;;;1.02;;
72194;SDS011;60095;50.180;9.032;2023-05-10T13:06:20;1.08;;;0.75;;
72194;SDS011;60095;50.180;9.032;2023-05-10T13:08:47;2.10;;;0.50;;
72194;SDS011;60095;50.180;9.032;2023-05-10T13:11:14;0.60;;;0.52;;
72194;SDS011;60095;50.180;9.032;2023-05-10T13:13:41;0.70;;;0.47;;
72194;SDS011;60095;50.180;9.032;2023-05-10T13:16:08;0.77;;;0.28;;
72194;SDS011;60095;50.180;9.032;2023-05-10T13:18:34;1.48;;;0.60;;
72194;SDS011;60095;50.180;9.032;2023-05-10T13:21:00;1.63;;;0.55;;
72194;SDS011;60095;50.180;9.032;2023-05-10T13:23:30;0.60;;;0.35;;
72194;SDS011;60095;50.180;9.032;2023-05-10T13:25:56;0.40;;;0.25;;
72194;SDS011;60095;50.180;9.032;2023-05-10T13:28:23;1.27;;;0.43;;
72194;SDS011;60095;50.180;9.032;2023-05-10T13:30:51;0.47;;;0.30;;
72194;SDS011;60095;50.180;9.032;2023-05-10T13:33:17;0.70;;;0.40;;
72194;SDS011;60095;50.180;9.032;2023-05-10T13:35:44;1.45;;;0.30;;
72194;SDS011;60095;50.180;9.032;2023-05-10T13:38:11;1.00;;;0.90;;
72194;SDS011;60095;50.180;9.032;2023-05-10T13:40:40;0.50;;;0.40;;
72194;SDS011;60095;50.180;9.032;2023-05-10T13:43:06;1.42;;;0.47;;
72194;SDS011;60095;50.180;9.032;2023-05-10T13:45:33;0.55;;;0.17;;
72194;SDS011;60095;50.180;9.032;2023-05-10T13:47:59;1.00;;;0.50;;
72194;SDS011;60095;50.180;9.032;2023-05-10T13:50:26;3.65;;;1.10;;
72194;SDS011;60095;50.180;9.032;2023-05-10T13:52:53;0.30;;;0.28;;
72194;SDS011;60095;50.180;9.032;2023-05-10T13:55:20;0.55;;;0.30;;
72194;SDS011;60095;50.180;9.032;2023-05-10T13:57:48;0.82;;;0.22;;
72194;SDS011;60095;50.180;9.032;2023-05-10T14:00:15;1.35;;;0.57;;
72194;SDS011;60095;50.180;9.032;2023-05-10T14:02:42;0.68;;;0.47;;
72194;SDS011;60095;50.180;9.032;2023-05-10T14:05:09;0.47;;;0.25;;
72194;SDS011;60095;50.180;9.032;2023-05-10T14:07:35;6.53;;;0.52;;
72194;SDS011;60095;50.180;9.032;2023-05-10T14:10:02;0.60;;;0.32;;
72194;SDS011;60095;50.180;9.032;2023-05-10T14:12:28;0.50;;;0.30;;
72194;SDS011;60095;50.180;9.032;2023-05-10T14:14:56;1.38;;;0.88;;
72194;SDS011;60095;50.180;9.032;2023-05-10T14:17:23;0.75;;;0.20;;
72194;SDS011;60095;50.180;9.032;2023-05-10T14:19:50;0.13;;;0.10;;
72194;SDS011;60095;50.180;9.032;2023-05-10T14:22:16;1.05;;;0.95;;
72194;SDS011;60095;50.180;9.032;2023-05-10T14:24:43;1.00;;;0.50;;
72194;SDS011;60095;50.180;9.032;2023-05-10T14:27:11;0.28;;;0.20;;
72194;SDS011;60095;50.180;9.032;2023-05-10T14:29:38;0.77;;;0.28;;
72194;SDS011;60095;50.180;9.032;2023-05-10T14:32:06;0.88;;;0.50;;
72194;SDS011;60095;50.180;9.032;2023-05-10T14:34:32;1.90;;;0.22;;
72194;SDS011;60095;50.180;9.032;2023-05-10T14:36:59;6.07;;;0.50;;
72194;SDS011;60095;50.180;9.032;2023-05-10T14:39:26;1.17;;;0.73;;
72194;SDS011;60095;50.180;9.032;2023-05-10T14:41:54;0.22;;;0.20;;
72194;SDS011;60095;50.180;9.032;2023-05-10T14:44:21;0.38;;;0.30;;
72194;SDS011;60095;50.180;9.032;2023-05-10T14:46:48;1.25;;;0.93;;
72194;SDS011;60095;50.180;9.032;2023-05-10T14:49:16;0.80;;;0.30;;
72194;SDS011;60095;50.180;9.032;2023-05-10T14:51:43;1.95;;;0.93;;
72194;SDS011;60095;50.180;9.032;2023-05-10T14:54:10;1.33;;;0.75;;
72194;SDS011;60095;50.180;9.032;2023-05-10T14:56:36;0.77;;;0.65;;
72194;SDS011;60095;50.180;9.032;2023-05-10T14:59:03;2.60;;;0.70;;
72194;SDS011;60095;50.180;9.032;2023-05-10T15:01:30;0.80;;;0.45;;